createdAt,value
2022-12-18T00:03:57.123Z,-4.26
2022-12-18T00:09:19.768Z,-4.25
2022-12-18T00:14:41.675Z,-4.27
2022-12-18T00:20:03.786Z,-4.28
2022-12-18T00:25:25.612Z,-4.33
2022-12-18T00:30:47.437Z,-4.24
2022-12-18T00:36:22.526Z,-4.34
2022-12-18T00:41:44.469Z,-4.51
2022-12-18T00:47:06.288Z,-4.29
2022-12-18T00:52:28.085Z,-4.23
2022-12-18T00:57:52.486Z,-4.13
2022-12-18T01:03:14.981Z,-4.20
2022-12-18T01:08:37.263Z,-4.20
2022-12-18T01:13:59.156Z,-4.19
2022-12-18T01:19:20.981Z,-4.30
2022-12-18T01:24:42.803Z,-4.25
2022-12-18T01:30:05.335Z,-4.11
2022-12-18T01:35:27.133Z,-4.04
2022-12-18T01:40:48.982Z,-4.22
2022-12-18T01:46:11.543Z,-3.98
2022-12-18T01:51:33.764Z,-3.99
2022-12-18T01:56:55.587Z,-4.02
2022-12-18T02:02:18.746Z,-4.07
2022-12-18T02:07:58.063Z,-4.29
2022-12-18T02:13:42.230Z,-4.19
2022-12-18T02:19:34.279Z,-4.41
2022-12-18T02:25:08.119Z,-4.32
2022-12-18T02:30:35.146Z,-4.49
2022-12-18T02:35:58.531Z,-4.66
2022-12-18T02:41:21.971Z,-4.41
2022-12-18T02:46:51.120Z,-4.59
2022-12-18T02:52:21.880Z,-4.56
2022-12-18T02:58:08.581Z,-4.49
2022-12-18T03:03:41.850Z,-4.63
2022-12-18T03:09:10.440Z,-4.49
2022-12-18T03:14:35.502Z,-4.75
2022-12-18T03:20:03.292Z,-4.69
2022-12-18T03:25:27.885Z,-4.57
2022-12-18T03:30:56.849Z,-4.83
2022-12-18T03:36:19.154Z,-4.77
2022-12-18T03:41:52.090Z,-4.69
2022-12-18T03:47:39.998Z,-4.83
2022-12-18T03:53:13.354Z,-4.71
2022-12-18T03:58:38.629Z,-4.67
2022-12-18T04:04:02.622Z,-4.86
2022-12-18T04:09:25.097Z,-4.82
2022-12-18T04:14:46.982Z,-4.64
2022-12-18T04:20:09.399Z,-4.82
2022-12-18T04:25:31.266Z,-4.74
2022-12-18T04:30:53.236Z,-4.76
2022-12-18T04:36:15.097Z,-4.75
2022-12-18T04:41:36.929Z,-4.69
2022-12-18T04:46:58.734Z,-4.66
2022-12-18T04:52:20.552Z,-4.69
2022-12-18T04:57:42.472Z,-4.81
2022-12-18T05:03:04.442Z,-4.83
2022-12-18T05:08:26.400Z,-4.88
2022-12-18T05:13:48.564Z,-4.98
2022-12-18T05:19:10.445Z,-4.92
2022-12-18T05:24:32.285Z,-4.93
2022-12-18T05:29:54.119Z,-5.01
2022-12-18T05:35:16.033Z,-5.05
2022-12-18T05:40:37.887Z,-5.16
2022-12-18T05:46:05.406Z,-5.13
2022-12-18T05:51:27.219Z,-5.08
2022-12-18T05:56:49.138Z,-4.98
2022-12-18T06:02:11.122Z,-5.24
2022-12-18T06:07:33.150Z,-5.12
2022-12-18T06:12:55.032Z,-5.16
2022-12-18T06:18:16.848Z,-5.34
2022-12-18T06:23:39.109Z,-5.10
2022-12-18T06:29:01.208Z,-5.51
2022-12-18T06:34:23.095Z,-5.20
2022-12-18T06:39:45.051Z,-4.98
2022-12-18T06:45:07.372Z,-4.98
2022-12-18T06:50:29.242Z,-4.89
2022-12-18T06:55:52.002Z,-4.77
2022-12-18T07:01:14.921Z,-4.87
2022-12-18T07:06:36.994Z,-4.72
2022-12-18T07:11:58.903Z,-4.98
2022-12-18T07:17:21.251Z,-4.81
2022-12-18T07:22:43.151Z,-4.88
2022-12-18T07:28:05.520Z,-4.67
2022-12-18T07:33:27.342Z,-4.70
2022-12-18T07:38:50.295Z,-4.36
2022-12-18T07:44:12.882Z,-4.31
2022-12-18T07:49:34.995Z,-4.17
2022-12-18T07:54:57.779Z,-3.96
2022-12-18T08:00:19.716Z,-3.76
2022-12-18T08:05:43.385Z,-3.75
2022-12-18T08:11:05.702Z,-4.26
2022-12-18T08:16:27.803Z,-4.16
2022-12-18T08:21:49.626Z,-3.72
2022-12-18T08:27:28.892Z,-3.49
2022-12-18T08:32:54.442Z,-3.26
2022-12-18T08:38:16.274Z,-3.13
2022-12-18T08:43:38.947Z,-3.01
2022-12-18T08:49:01.081Z,-2.70
2022-12-18T08:54:22.972Z,-2.80
2022-12-18T08:59:44.795Z,-2.86
2022-12-18T09:05:06.824Z,-3.02
2022-12-18T09:10:28.585Z,-2.56
2022-12-18T09:15:55.110Z,-2.57
2022-12-18T09:21:21.853Z,-1.97
2022-12-18T09:26:43.875Z,-1.93
2022-12-18T09:32:08.972Z,-1.91
2022-12-18T09:37:30.759Z,-1.81
2022-12-18T09:43:00.670Z,-1.29
2022-12-18T09:48:27.146Z,-1.39
2022-12-18T09:53:56.732Z,-0.72
2022-12-18T09:59:30.735Z,-0.42
2022-12-18T10:05:04.858Z,-0.32
2022-12-18T10:10:42.559Z,-0.93
2022-12-18T10:16:26.140Z,-0.76
2022-12-18T10:22:00.000Z,-1.85
2022-12-18T10:27:27.671Z,-1.24
2022-12-18T10:32:49.560Z,-1.02
2022-12-18T10:38:14.062Z,-1.44
2022-12-18T10:43:40.608Z,-1.75
2022-12-18T10:49:02.706Z,-1.36
2022-12-18T10:54:26.259Z,-1.29
2022-12-18T10:59:56.547Z,-1.63
2022-12-18T11:05:36.321Z,-1.44
2022-12-18T11:10:58.428Z,-1.22
2022-12-18T11:16:21.162Z,-1.18
2022-12-18T11:21:43.676Z,-1.41
2022-12-18T11:27:07.015Z,-1.05
2022-12-18T11:32:38.413Z,-1.23
2022-12-18T11:38:08.049Z,-0.90
2022-12-18T11:43:39.076Z,-1.67
2022-12-18T11:49:22.514Z,-1.50
2022-12-18T11:54:44.491Z,-1.37
2022-12-18T12:00:14.914Z,-1.70
2022-12-18T12:06:04.498Z,-1.51
2022-12-18T12:12:04.967Z,-1.49
2022-12-18T12:17:26.763Z,-1.35
2022-12-18T12:23:15.815Z,-1.30
2022-12-18T12:28:58.513Z,-1.35
2022-12-18T12:34:20.341Z,-1.25
2022-12-18T12:39:45.511Z,-1.28
2022-12-18T12:45:17.632Z,-1.40
2022-12-18T12:50:40.418Z,-1.51
2022-12-18T12:56:04.383Z,-1.71
2022-12-18T13:01:26.530Z,-1.70
2022-12-18T13:07:19.489Z,-1.83
2022-12-18T13:13:04.962Z,-1.76
2022-12-18T13:18:28.503Z,-1.94
2022-12-18T13:23:51.165Z,-1.90
2022-12-18T13:29:43.298Z,-2.01
2022-12-18T13:35:28.147Z,-1.91
2022-12-18T13:40:50.285Z,-2.11
2022-12-18T13:46:26.786Z,-2.08
2022-12-18T13:51:51.700Z,-2.35
2022-12-18T13:57:33.163Z,-2.43
2022-12-18T14:02:56.987Z,-2.36
2022-12-18T14:08:19.505Z,-2.41
2022-12-18T14:13:43.348Z,-2.50
2022-12-18T14:19:15.681Z,-2.43
2022-12-18T14:24:37.691Z,-2.62
2022-12-18T14:29:59.631Z,-2.95
2022-12-18T14:35:21.456Z,-2.64
2022-12-18T14:40:44.290Z,-2.65
2022-12-18T14:46:26.609Z,-2.82
2022-12-18T14:51:54.542Z,-2.93
2022-12-18T14:57:23.900Z,-2.99
2022-12-18T15:02:59.113Z,-2.90
2022-12-18T15:08:50.575Z,-2.97
2022-12-18T15:14:24.618Z,-3.07
2022-12-18T15:19:47.924Z,-3.33
2022-12-18T15:25:29.243Z,-3.17
2022-12-18T15:31:18.644Z,-3.11
2022-12-18T15:36:40.978Z,-3.18
2022-12-18T15:42:03.081Z,-3.20
2022-12-18T15:47:24.929Z,-2.97
2022-12-18T15:52:49.949Z,-2.94
2022-12-18T15:58:11.924Z,-3.01
2022-12-18T16:03:34.872Z,-2.92
2022-12-18T16:08:56.720Z,-3.19
2022-12-18T16:14:26.702Z,-3.12
2022-12-18T16:19:49.850Z,-3.34
2022-12-18T16:25:29.937Z,-3.27
2022-12-18T16:30:51.980Z,-3.41
2022-12-18T16:36:13.920Z,-3.40
2022-12-18T16:41:35.715Z,-3.63
2022-12-18T16:46:57.707Z,-3.58
2022-12-18T16:52:20.667Z,-3.36
2022-12-18T16:57:42.508Z,-3.51
2022-12-18T17:03:04.550Z,-3.55
2022-12-18T17:08:26.503Z,-3.41
2022-12-18T17:13:48.551Z,-3.57
2022-12-18T17:19:16.857Z,-3.58
2022-12-18T17:24:39.376Z,-3.67
2022-12-18T17:30:01.474Z,-3.64
2022-12-18T17:35:23.335Z,-3.59
2022-12-18T17:40:46.569Z,-3.58
2022-12-18T17:46:14.599Z,-3.81
2022-12-18T17:51:36.782Z,-3.83
2022-12-18T17:56:58.779Z,-3.90
2022-12-18T18:02:20.705Z,-3.60
2022-12-18T18:07:43.150Z,-3.62
2022-12-18T18:13:06.258Z,-3.94
2022-12-18T18:18:28.075Z,-3.84
2022-12-18T18:23:49.856Z,-3.82
2022-12-18T18:29:16.963Z,-4.17
2022-12-18T18:34:40.412Z,-4.20
2022-12-18T18:40:02.552Z,-4.23
2022-12-18T18:45:24.407Z,-4.42
2022-12-18T18:50:57.848Z,-4.60
2022-12-18T19:02:07.264Z,-4.46
2022-12-18T19:07:30.979Z,-4.68
2022-12-18T19:12:53.143Z,-4.63
2022-12-18T19:18:15.214Z,-4.77
2022-12-18T19:23:37.127Z,-4.90
2022-12-18T19:29:04.192Z,-4.97
2022-12-18T19:34:26.159Z,-4.98
2022-12-18T19:39:47.999Z,-4.89
2022-12-18T19:45:10.366Z,-4.78
2022-12-18T19:50:32.763Z,-4.84
2022-12-18T19:55:55.916Z,-4.89
2022-12-18T20:01:19.437Z,-4.93
2022-12-18T20:06:50.137Z,-5.13
2022-12-18T20:12:12.122Z,-5.01
2022-12-18T20:17:34.218Z,-4.97
2022-12-18T20:22:56.597Z,-5.15
2022-12-18T20:28:18.628Z,-5.21
2022-12-18T20:33:41.795Z,-5.13
2022-12-18T20:39:06.559Z,-5.03
2022-12-18T20:44:29.526Z,-5.09
2022-12-18T20:49:51.371Z,-4.95
2022-12-18T20:55:13.384Z,-5.12
2022-12-18T21:00:35.309Z,-4.99
2022-12-18T21:05:57.231Z,-4.89
2022-12-18T21:11:22.136Z,-4.88
2022-12-18T21:16:45.061Z,-4.87
2022-12-18T21:22:06.932Z,-4.89
2022-12-18T21:27:28.832Z,-4.98
2022-12-18T21:32:50.926Z,-5.05
2022-12-18T21:38:12.770Z,-5.04
2022-12-18T21:43:37.352Z,-4.96
2022-12-18T21:48:59.182Z,-5.00
2022-12-18T21:54:21.889Z,-5.05
2022-12-18T21:59:43.774Z,-5.08
2022-12-18T22:05:05.909Z,-4.99
2022-12-18T22:10:27.729Z,-5.07
2022-12-18T22:15:49.743Z,-5.07
2022-12-18T22:21:31.378Z,-5.50
2022-12-18T22:26:54.035Z,-5.41
2022-12-18T22:32:29.079Z,-5.30
2022-12-18T22:37:53.400Z,-5.47
2022-12-18T22:43:15.237Z,-5.62
2022-12-18T22:48:37.087Z,-5.64
2022-12-18T22:53:58.904Z,-5.46
2022-12-18T22:59:22.706Z,-5.56
2022-12-18T23:04:44.769Z,-5.51
2022-12-18T23:10:06.966Z,-5.57
2022-12-18T23:15:29.877Z,-5.71
2022-12-18T23:20:51.819Z,-5.75
2022-12-18T23:26:18.797Z,-5.60
2022-12-18T23:31:40.672Z,-5.78
2022-12-18T23:37:02.623Z,-5.80
2022-12-18T23:42:24.434Z,-5.95
2022-12-18T23:47:50.892Z,-6.03
2022-12-18T23:53:13.558Z,-6.01
2022-12-18T23:58:36.378Z,-6.08
